sensor_id;sensor_type;location;lat;lon;timestamp;temperature;humidity
11505;DHT22;5809;53.262;10.408;2023-08-30T00:02:01;13.70;99.90
11505;DHT22;5809;53.262;10.408;2023-08-30T00:04:29;13.60;99.90
11505;DHT22;5809;53.262;10.408;2023-08-30T00:21:41;13.50;99.90
11505;DHT22;5809;53.262;10.408;2023-08-30T00:24:08;13.50;99.90
11505;DHT22;5809;53.262;10.408;2023-08-30T00:29:02;13.30;99.90
11505;DHT22;5809;53.262;10.408;2023-08-30T00:31:29;13.40;99.90
11505;DHT22;5809;53.262;10.408;2023-08-30T00:36:23;13.30;99.90
11505;DHT22;5809;53.262;10.408;2023-08-30T00:38:50;13.20;99.90
11505;DHT22;5809;53.262;10.408;2023-08-30T00:41:17;13.20;99.90
11505;DHT22;5809;53.262;10.408;2023-08-30T00:46:11;13.20;99.90
11505;DHT22;5809;53.262;10.408;2023-08-30T00:48:38;13.10;99.90
11505;DHT22;5809;53.262;10.408;2023-08-30T00:51:05;13.10;99.90
11505;DHT22;5809;53.262;10.408;2023-08-30T00:53:34;13.10;99.90
11505;DHT22;5809;53.262;10.408;2023-08-30T00:56:01;13.00;99.90
11505;DHT22;5809;53.262;10.408;2023-08-30T00:58:28;12.90;99.90
11505;DHT22;5809;53.262;10.408;2023-08-30T01:00:54;13.00;99.90
11505;DHT22;5809;53.262;10.408;2023-08-30T01:10:52;12.80;99.90
11505;DHT22;5809;53.262;10.408;2023-08-30T01:13:21;12.70;99.90
11505;DHT22;5809;53.262;10.408;2023-08-30T01:15:48;12.70;99.90
11505;DHT22;5809;53.262;10.408;2023-08-30T01:18:18;12.60;99.90
11505;DHT22;5809;53.262;10.408;2023-08-30T01:20:47;12.70;99.90
11505;DHT22;5809;53.262;10.408;2023-08-30T01:23:23;12.60;99.90
11505;DHT22;5809;53.262;10.408;2023-08-30T01:26:04;12.60;99.90
11505;DHT22;5809;53.262;10.408;2023-08-30T01:32:15;12.60;99.90
11505;DHT22;5809;53.262;10.408;2023-08-30T01:34:48;12.60;99.90
11505;DHT22;5809;53.262;10.408;2023-08-30T01:37:30;12.50;99.90
11505;DHT22;5809;53.262;10.408;2023-08-30T01:40:05;12.50;99.90
11505;DHT22;5809;53.262;10.408;2023-08-30T01:42:33;12.50;99.90
11505;DHT22;5809;53.262;10.408;2023-08-30T01:45:20;12.40;99.90
11505;DHT22;5809;53.262;10.408;2023-08-30T01:52:04;12.30;99.90
11505;DHT22;5809;53.262;10.408;2023-08-30T01:55:19;12.20;99.90
11505;DHT22;5809;53.262;10.408;2023-08-30T01:58:33;12.10;99.90
11505;DHT22;5809;53.262;10.408;2023-08-30T02:03:58;12.10;99.90
11505;DHT22;5809;53.262;10.408;2023-08-30T02:05:56;12.10;99.90
11505;DHT22;5809;53.262;10.408;2023-08-30T02:09:07;12.10;99.90
11505;DHT22;5809;53.262;10.408;2023-08-30T02:11:36;12.00;99.90
11505;DHT22;5809;53.262;10.408;2023-08-30T02:14:08;12.00;99.90
11505;DHT22;5809;53.262;10.408;2023-08-30T02:19:19;11.90;99.90
11505;DHT22;5809;53.262;10.408;2023-08-30T02:22:17;11.90;99.90
11505;DHT22;5809;53.262;10.408;2023-08-30T02:29:12;11.90;99.90
11505;DHT22;5809;53.262;10.408;2023-08-30T02:47:39;11.70;99.90
11505;DHT22;5809;53.262;10.408;2023-08-30T02:55:09;11.70;99.90
11505;DHT22;5809;53.262;10.408;2023-08-30T02:57:36;11.70;99.90
11505;DHT22;5809;53.262;10.408;2023-08-30T03:02:32;11.70;99.90
11505;DHT22;5809;53.262;10.408;2023-08-30T03:04:59;11.70;99.90
11505;DHT22;5809;53.262;10.408;2023-08-30T03:07:28;11.60;99.90
11505;DHT22;5809;53.262;10.408;2023-08-30T03:09:55;11.70;99.90
11505;DHT22;5809;53.262;10.408;2023-08-30T03:12:22;11.70;99.90
11505;DHT22;5809;53.262;10.408;2023-08-30T03:14:49;11.60;99.90
11505;DHT22;5809;53.262;10.408;2023-08-30T03:17:17;11.60;99.90
11505;DHT22;5809;53.262;10.408;2023-08-30T03:19:44;11.60;99.90
11505;DHT22;5809;53.262;10.408;2023-08-30T03:24:38;11.60;99.90
11505;DHT22;5809;53.262;10.408;2023-08-30T03:27:05;11.60;99.90
11505;DHT22;5809;53.262;10.408;2023-08-30T03:37:06;11.60;99.90
11505;DHT22;5809;53.262;10.408;2023-08-30T03:42:00;11.50;99.90
11505;DHT22;5809;53.262;10.408;2023-08-30T03:46:54;11.50;99.90
11505;DHT22;5809;53.262;10.408;2023-08-30T03:49:22;11.50;99.90
11505;DHT22;5809;53.262;10.408;2023-08-30T03:51:49;11.50;99.90
11505;DHT22;5809;53.262;10.408;2023-08-30T03:54:17;11.50;99.90
11505;DHT22;5809;53.262;10.408;2023-08-30T03:56:44;11.50;99.90
11505;DHT22;5809;53.262;10.408;2023-08-30T03:59:11;11.40;99.90
11505;DHT22;5809;53.262;10.408;2023-08-30T04:01:38;11.50;99.90
11505;DHT22;5809;53.262;10.408;2023-08-30T04:04:05;11.50;99.90
11505;DHT22;5809;53.262;10.408;2023-08-30T04:06:32;11.40;99.90
11505;DHT22;5809;53.262;10.408;2023-08-30T04:08:59;11.50;99.90
11505;DHT22;5809;53.262;10.408;2023-08-30T04:11:27;11.40;99.90
11505;DHT22;5809;53.262;10.408;2023-08-30T04:16:21;11.40;99.90
11505;DHT22;5809;53.262;10.408;2023-08-30T04:21:15;11.40;99.90
11505;DHT22;5809;53.262;10.408;2023-08-30T04:26:09;11.40;99.90
11505;DHT22;5809;53.262;10.408;2023-08-30T04:28:37;11.30;99.90
11505;DHT22;5809;53.262;10.408;2023-08-30T04:33:32;11.30;99.90
11505;DHT22;5809;53.262;10.408;2023-08-30T04:35:59;11.30;99.90
11505;DHT22;5809;53.262;10.408;2023-08-30T04:38:29;11.40;99.90
11505;DHT22;5809;53.262;10.408;2023-08-30T04:40:57;11.40;99.90
11505;DHT22;5809;53.262;10.408;2023-08-30T04:45:53;11.30;99.90
11505;DHT22;5809;53.262;10.408;2023-08-30T04:55:44;11.30;99.90
11505;DHT22;5809;53.262;10.408;2023-08-30T05:03:06;11.30;99.90
11505;DHT22;5809;53.262;10.408;2023-08-30T05:05:33;11.30;99.90
11505;DHT22;5809;53.262;10.408;2023-08-30T05:08:01;11.30;99.90
11505;DHT22;5809;53.262;10.408;2023-08-30T05:10:27;11.30;99.90
11505;DHT22;5809;53.262;10.408;2023-08-30T05:12:54;11.40;99.90
11505;DHT22;5809;53.262;10.408;2023-08-30T05:15:21;11.60;99.90
11505;DHT22;5809;53.262;10.408;2023-08-30T05:17:48;11.90;99.90
11505;DHT22;5809;53.262;10.408;2023-08-30T05:20:16;12.10;99.90
11505;DHT22;5809;53.262;10.408;2023-08-30T05:22:44;12.30;99.90
11505;DHT22;5809;53.262;10.408;2023-08-30T05:27:38;12.70;99.90
11505;DHT22;5809;53.262;10.408;2023-08-30T05:30:06;12.90;71.30
11505;DHT22;5809;53.262;10.408;2023-08-30T05:32:33;13.20;1.00
11505;DHT22;5809;53.262;10.408;2023-08-30T05:37:28;13.70;1.00
11505;DHT22;5809;53.262;10.408;2023-08-30T05:39:56;13.90;99.90
11505;DHT22;5809;53.262;10.408;2023-08-30T05:42:23;14.20;99.90
11505;DHT22;5809;53.262;10.408;2023-08-30T05:49:44;14.90;1.00
11505;DHT22;5809;53.262;10.408;2023-08-30T05:54:40;15.20;1.00
11505;DHT22;5809;53.262;10.408;2023-08-30T05:57:09;15.10;1.00
11505;DHT22;5809;53.262;10.408;2023-08-30T05:59:35;15.10;6.90
11505;DHT22;5809;53.262;10.408;2023-08-30T06:02:03;14.70;1.00
11505;DHT22;5809;53.262;10.408;2023-08-30T06:04:30;14.70;1.00
11505;DHT22;5809;53.262;10.408;2023-08-30T06:09:24;14.50;1.00
11505;DHT22;5809;53.262;10.408;2023-08-30T06:11:52;14.70;1.00
11505;DHT22;5809;53.262;10.408;2023-08-30T06:16:46;14.80;1.00
11505;DHT22;5809;53.262;10.408;2023-08-30T06:21:41;15.00;99.90
11505;DHT22;5809;53.262;10.408;2023-08-30T06:24:08;15.20;99.90
11505;DHT22;5809;53.262;10.408;2023-08-30T06:26:35;15.40;1.00
11505;DHT22;5809;53.262;10.408;2023-08-30T06:29:03;15.70;1.00
11505;DHT22;5809;53.262;10.408;2023-08-30T06:31:30;16.10;1.00
11505;DHT22;5809;53.262;10.408;2023-08-30T06:36:24;16.50;99.90
11505;DHT22;5809;53.262;10.408;2023-08-30T06:38:51;16.60;1.00
11505;DHT22;5809;53.262;10.408;2023-08-30T06:41:18;16.60;1.00
11505;DHT22;5809;53.262;10.408;2023-08-30T06:43:45;16.80;1.00
11505;DHT22;5809;53.262;10.408;2023-08-30T06:46:14;16.80;1.00
11505;DHT22;5809;53.262;10.408;2023-08-30T06:48:40;17.10;1.00
11505;DHT22;5809;53.262;10.408;2023-08-30T06:53:36;16.90;1.00
11505;DHT22;5809;53.262;10.408;2023-08-30T06:56:03;17.10;1.00
11505;DHT22;5809;53.262;10.408;2023-08-30T07:00:57;17.90;99.90
11505;DHT22;5809;53.262;10.408;2023-08-30T07:03:25;17.90;99.90
11505;DHT22;5809;53.262;10.408;2023-08-30T07:05:52;18.60;99.90
11505;DHT22;5809;53.262;10.408;2023-08-30T07:13:14;18.70;99.90
11505;DHT22;5809;53.262;10.408;2023-08-30T07:15:41;19.10;99.90
11505;DHT22;5809;53.262;10.408;2023-08-30T07:18:09;19.10;20.80
11505;DHT22;5809;53.262;10.408;2023-08-30T07:20:38;19.10;34.20
11505;DHT22;5809;53.262;10.408;2023-08-30T07:28:01;19.80;1.00
11505;DHT22;5809;53.262;10.408;2023-08-30T07:32:56;19.90;1.00
11505;DHT22;5809;53.262;10.408;2023-08-30T07:37:51;20.40;99.90
11505;DHT22;5809;53.262;10.408;2023-08-30T07:47:40;20.80;99.90
11505;DHT22;5809;53.262;10.408;2023-08-30T07:50:08;21.80;1.00
11505;DHT22;5809;53.262;10.408;2023-08-30T07:55:04;22.00;99.90
11505;DHT22;5809;53.262;10.408;2023-08-30T07:59:58;22.00;1.00
11505;DHT22;5809;53.262;10.408;2023-08-30T08:04:52;22.30;99.90
11505;DHT22;5809;53.262;10.408;2023-08-30T08:07:18;22.10;1.00
11505;DHT22;5809;53.262;10.408;2023-08-30T08:12:14;22.50;99.90
11505;DHT22;5809;53.262;10.408;2023-08-30T08:14:41;22.90;99.90
11505;DHT22;5809;53.262;10.408;2023-08-30T08:24:32;23.20;34.40
11505;DHT22;5809;53.262;10.408;2023-08-30T08:29:28;23.70;1.00
11505;DHT22;5809;53.262;10.408;2023-08-30T08:34:22;23.90;1.00
11505;DHT22;5809;53.262;10.408;2023-08-30T08:36:49;24.10;93.10
11505;DHT22;5809;53.262;10.408;2023-08-30T08:39:16;24.20;1.00
11505;DHT22;5809;53.262;10.408;2023-08-30T08:41:44;23.90;1.00
11505;DHT22;5809;53.262;10.408;2023-08-30T08:44:12;24.10;63.30
11505;DHT22;5809;53.262;10.408;2023-08-30T08:46:42;24.10;99.90
11505;DHT22;5809;53.262;10.408;2023-08-30T08:49:11;23.90;99.90
11505;DHT22;5809;53.262;10.408;2023-08-30T08:51:39;23.60;1.00
11505;DHT22;5809;53.262;10.408;2023-08-30T08:54:07;22.90;99.90
11505;DHT22;5809;53.262;10.408;2023-08-30T09:01:31;21.70;1.00
11505;DHT22;5809;53.262;10.408;2023-08-30T09:04:04;21.40;1.00
11505;DHT22;5809;53.262;10.408;2023-08-30T09:06:31;21.10;1.00
11505;DHT22;5809;53.262;10.408;2023-08-30T09:08:58;20.70;1.00
11505;DHT22;5809;53.262;10.408;2023-08-30T09:11:25;20.70;47.50
11505;DHT22;5809;53.262;10.408;2023-08-30T09:13:52;17.50;60.40
11505;DHT22;5809;53.262;10.408;2023-08-30T09:16:18;20.70;31.80
11505;DHT22;5809;53.262;10.408;2023-08-30T09:18:57;21.10;89.30
11505;DHT22;5809;53.262;10.408;2023-08-30T09:21:25;21.20;1.00
11505;DHT22;5809;53.262;10.408;2023-08-30T09:23:59;21.30;1.00
11505;DHT22;5809;53.262;10.408;2023-08-30T09:26:27;21.30;1.00
11505;DHT22;5809;53.262;10.408;2023-08-30T09:31:21;21.50;1.00
11505;DHT22;5809;53.262;10.408;2023-08-30T09:36:16;21.40;1.00
11505;DHT22;5809;53.262;10.408;2023-08-30T09:38:49;21.50;1.00
11505;DHT22;5809;53.262;10.408;2023-08-30T09:43:44;21.10;1.00
11505;DHT22;5809;53.262;10.408;2023-08-30T09:46:13;20.80;1.00
11505;DHT22;5809;53.262;10.408;2023-08-30T09:48:40;20.70;1.00
11505;DHT22;5809;53.262;10.408;2023-08-30T09:51:08;20.60;95.40
11505;DHT22;5809;53.262;10.408;2023-08-30T09:53:42;20.60;89.30
11505;DHT22;5809;53.262;10.408;2023-08-30T09:56:12;22.00;1.00
11505;DHT22;5809;53.262;10.408;2023-08-30T09:58:41;22.00;1.00
11505;DHT22;5809;53.262;10.408;2023-08-30T10:01:09;22.80;99.90
11505;DHT22;5809;53.262;10.408;2023-08-30T10:03:36;22.80;99.90
11505;DHT22;5809;53.262;10.408;2023-08-30T10:06:03;22.20;99.90
11505;DHT22;5809;53.262;10.408;2023-08-30T10:08:31;22.30;99.90
11505;DHT22;5809;53.262;10.408;2023-08-30T10:10:58;22.00;1.00
11505;DHT22;5809;53.262;10.408;2023-08-30T10:13:27;21.80;99.90
11505;DHT22;5809;53.262;10.408;2023-08-30T10:16:00;21.60;1.00
11505;DHT22;5809;53.262;10.408;2023-08-30T10:18:32;21.50;99.90
11505;DHT22;5809;53.262;10.408;2023-08-30T10:21:02;21.50;1.00
11505;DHT22;5809;53.262;10.408;2023-08-30T10:23:33;21.50;1.00
11505;DHT22;5809;53.262;10.408;2023-08-30T10:26:03;21.80;1.00
11505;DHT22;5809;53.262;10.408;2023-08-30T10:28:34;21.70;1.00
11505;DHT22;5809;53.262;10.408;2023-08-30T10:31:01;21.80;99.90
11505;DHT22;5809;53.262;10.408;2023-08-30T10:33:28;21.60;99.90
11505;DHT22;5809;53.262;10.408;2023-08-30T10:36:05;21.60;1.00
11505;DHT22;5809;53.262;10.408;2023-08-30T10:38:32;21.80;1.00
11505;DHT22;5809;53.262;10.408;2023-08-30T10:41:06;22.30;99.90
11505;DHT22;5809;53.262;10.408;2023-08-30T10:43:36;22.80;99.90
11505;DHT22;5809;53.262;10.408;2023-08-30T10:46:04;22.80;1.00
11505;DHT22;5809;53.262;10.408;2023-08-30T10:48:39;23.50;1.00
11505;DHT22;5809;53.262;10.408;2023-08-30T10:51:19;23.40;1.00
11505;DHT22;5809;53.262;10.408;2023-08-30T10:53:56;23.40;1.00
11505;DHT22;5809;53.262;10.408;2023-08-30T10:56:28;23.20;99.90
11505;DHT22;5809;53.262;10.408;2023-08-30T10:58:56;22.80;99.90
11505;DHT22;5809;53.262;10.408;2023-08-30T11:01:23;22.20;99.90
11505;DHT22;5809;53.262;10.408;2023-08-30T11:03:51;21.80;99.90
11505;DHT22;5809;53.262;10.408;2023-08-30T11:06:18;21.40;1.00
11505;DHT22;5809;53.262;10.408;2023-08-30T11:08:47;21.40;1.00
11505;DHT22;5809;53.262;10.408;2023-08-30T11:11:14;21.50;1.00
11505;DHT22;5809;53.262;10.408;2023-08-30T11:13:41;21.60;1.00
11505;DHT22;5809;53.262;10.408;2023-08-30T11:16:09;21.60;1.00
11505;DHT22;5809;53.262;10.408;2023-08-30T11:18:37;21.80;51.00
11505;DHT22;5809;53.262;10.408;2023-08-30T11:21:07;22.30;1.00
11505;DHT22;5809;53.262;10.408;2023-08-30T11:23:34;22.50;1.00
11505;DHT22;5809;53.262;10.408;2023-08-30T11:26:01;22.50;1.00
11505;DHT22;5809;53.262;10.408;2023-08-30T11:28:30;22.60;1.00
11505;DHT22;5809;53.262;10.408;2023-08-30T11:30:56;22.50;99.90
11505;DHT22;5809;53.262;10.408;2023-08-30T11:33:25;22.50;99.90
11505;DHT22;5809;53.262;10.408;2023-08-30T11:35:52;22.20;1.00
11505;DHT22;5809;53.262;10.408;2023-08-30T11:38:19;22.00;1.00
11505;DHT22;5809;53.262;10.408;2023-08-30T11:40:49;22.00;99.90
11505;DHT22;5809;53.262;10.408;2023-08-30T11:43:16;21.90;99.90
11505;DHT22;5809;53.262;10.408;2023-08-30T11:45:43;21.50;1.00
11505;DHT22;5809;53.262;10.408;2023-08-30T11:48:11;21.50;1.00
11505;DHT22;5809;53.262;10.408;2023-08-30T11:50:41;21.40;1.00
11505;DHT22;5809;53.262;10.408;2023-08-30T11:53:09;21.20;99.90
11505;DHT22;5809;53.262;10.408;2023-08-30T11:55:37;21.20;1.00
11505;DHT22;5809;53.262;10.408;2023-08-30T11:58:04;21.30;99.90
11505;DHT22;5809;53.262;10.408;2023-08-30T12:00:33;21.30;99.90
11505;DHT22;5809;53.262;10.408;2023-08-30T12:03:01;21.20;99.90
11505;DHT22;5809;53.262;10.408;2023-08-30T12:05:27;21.10;99.90
11505;DHT22;5809;53.262;10.408;2023-08-30T12:08:00;21.00;99.90
11505;DHT22;5809;53.262;10.408;2023-08-30T12:10:28;21.00;99.90
11505;DHT22;5809;53.262;10.408;2023-08-30T12:12:55;16.90;1.00
11505;DHT22;5809;53.262;10.408;2023-08-30T12:15:22;21.10;99.90
11505;DHT22;5809;53.262;10.408;2023-08-30T12:17:51;21.00;45.00
11505;DHT22;5809;53.262;10.408;2023-08-30T12:22:49;20.70;99.90
11505;DHT22;5809;53.262;10.408;2023-08-30T12:25:18;20.60;1.00
11505;DHT22;5809;53.262;10.408;2023-08-30T12:27:46;20.70;99.90
11505;DHT22;5809;53.262;10.408;2023-08-30T12:30:14;20.60;1.00
11505;DHT22;5809;53.262;10.408;2023-08-30T12:32:42;20.60;1.00
11505;DHT22;5809;53.262;10.408;2023-08-30T12:35:09;20.60;1.00
11505;DHT22;5809;53.262;10.408;2023-08-30T12:37:36;20.60;99.90
11505;DHT22;5809;53.262;10.408;2023-08-30T12:40:03;20.70;99.90
11505;DHT22;5809;53.262;10.408;2023-08-30T12:45:00;20.60;99.90
11505;DHT22;5809;53.262;10.408;2023-08-30T12:47:29;20.80;40.90
11505;DHT22;5809;53.262;10.408;2023-08-30T12:49:56;21.00;99.90
11505;DHT22;5809;53.262;10.408;2023-08-30T12:57:17;22.40;50.90
11505;DHT22;5809;53.262;10.408;2023-08-30T12:59:45;22.30;99.90
11505;DHT22;5809;53.262;10.408;2023-08-30T13:02:12;21.90;99.90
11505;DHT22;5809;53.262;10.408;2023-08-30T13:07:06;21.70;99.90
11505;DHT22;5809;53.262;10.408;2023-08-30T13:09:34;20.30;22.60
11505;DHT22;5809;53.262;10.408;2023-08-30T13:14:28;20.00;99.90
11505;DHT22;5809;53.262;10.408;2023-08-30T13:16:56;19.90;1.00
11505;DHT22;5809;53.262;10.408;2023-08-30T13:19:23;18.30;1.00
11505;DHT22;5809;53.262;10.408;2023-08-30T13:21:50;19.70;99.90
11505;DHT22;5809;53.262;10.408;2023-08-30T13:24:17;19.70;99.90
11505;DHT22;5809;53.262;10.408;2023-08-30T13:26:44;20.00;99.90
11505;DHT22;5809;53.262;10.408;2023-08-30T13:29:10;19.90;99.90
11505;DHT22;5809;53.262;10.408;2023-08-30T13:31:37;19.90;1.00
11505;DHT22;5809;53.262;10.408;2023-08-30T13:34:05;20.10;99.90
11505;DHT22;5809;53.262;10.408;2023-08-30T13:36:32;19.80;1.00
11505;DHT22;5809;53.262;10.408;2023-08-30T13:38:59;20.20;99.90
11505;DHT22;5809;53.262;10.408;2023-08-30T13:41:26;20.30;83.90
11505;DHT22;5809;53.262;10.408;2023-08-30T13:43:53;20.40;1.00
11505;DHT22;5809;53.262;10.408;2023-08-30T13:46:20;21.60;99.90
11505;DHT22;5809;53.262;10.408;2023-08-30T13:48:47;22.40;1.00
11505;DHT22;5809;53.262;10.408;2023-08-30T13:51:21;23.40;1.00
11505;DHT22;5809;53.262;10.408;2023-08-30T13:53:48;24.20;99.90
11505;DHT22;5809;53.262;10.408;2023-08-30T13:56:15;24.00;1.00
11505;DHT22;5809;53.262;10.408;2023-08-30T13:58:42;24.00;1.00
11505;DHT22;5809;53.262;10.408;2023-08-30T14:01:09;22.60;1.00
11505;DHT22;5809;53.262;10.408;2023-08-30T14:06:03;22.80;1.00
11505;DHT22;5809;53.262;10.408;2023-08-30T14:10:59;23.40;99.90
11505;DHT22;5809;53.262;10.408;2023-08-30T14:15:58;23.90;70.60
11505;DHT22;5809;53.262;10.408;2023-08-30T14:18:25;22.90;88.60
11505;DHT22;5809;53.262;10.408;2023-08-30T14:20:55;22.60;99.90
11505;DHT22;5809;53.262;10.408;2023-08-30T14:23:22;23.10;1.00
11505;DHT22;5809;53.262;10.408;2023-08-30T14:25:57;22.80;99.90
11505;DHT22;5809;53.262;10.408;2023-08-30T14:28:24;22.70;1.00
11505;DHT22;5809;53.262;10.408;2023-08-30T14:30:51;21.70;99.90
11505;DHT22;5809;53.262;10.408;2023-08-30T14:33:18;22.30;99.90
11505;DHT22;5809;53.262;10.408;2023-08-30T14:35:45;23.50;16.30
11505;DHT22;5809;53.262;10.408;2023-08-30T14:38:12;24.20;1.00
11505;DHT22;5809;53.262;10.408;2023-08-30T14:40:38;23.80;99.90
11505;DHT22;5809;53.262;10.408;2023-08-30T14:43:07;24.90;1.00
11505;DHT22;5809;53.262;10.408;2023-08-30T14:45:34;25.10;99.90
11505;DHT22;5809;53.262;10.408;2023-08-30T14:50:28;24.20;1.00
11505;DHT22;5809;53.262;10.408;2023-08-30T14:52:54;23.00;1.00
11505;DHT22;5809;53.262;10.408;2023-08-30T14:57:49;22.00;99.90
11505;DHT22;5809;53.262;10.408;2023-08-30T15:00:18;21.50;99.90
11505;DHT22;5809;53.262;10.408;2023-08-30T15:02:45;21.40;99.90
11505;DHT22;5809;53.262;10.408;2023-08-30T15:05:12;21.10;1.00
11505;DHT22;5809;53.262;10.408;2023-08-30T15:07:38;21.20;1.00
11505;DHT22;5809;53.262;10.408;2023-08-30T15:10:06;21.30;99.90
11505;DHT22;5809;53.262;10.408;2023-08-30T15:12:33;21.60;1.00
11505;DHT22;5809;53.262;10.408;2023-08-30T15:14:59;21.30;1.00
11505;DHT22;5809;53.262;10.408;2023-08-30T15:17:28;20.60;1.00
11505;DHT22;5809;53.262;10.408;2023-08-30T15:19:54;20.60;99.90
11505;DHT22;5809;53.262;10.408;2023-08-30T15:22:21;20.40;99.90
11505;DHT22;5809;53.262;10.408;2023-08-30T15:24:48;20.60;82.50
11505;DHT22;5809;53.262;10.408;2023-08-30T15:29:42;20.30;99.90
11505;DHT22;5809;53.262;10.408;2023-08-30T15:32:09;20.40;99.90
11505;DHT22;5809;53.262;10.408;2023-08-30T15:34:37;20.40;99.90
11505;DHT22;5809;53.262;10.408;2023-08-30T15:37:04;20.30;1.00
11505;DHT22;5809;53.262;10.408;2023-08-30T15:39:31;20.40;1.00
11505;DHT22;5809;53.262;10.408;2023-08-30T15:41:58;20.50;1.00
11505;DHT22;5809;53.262;10.408;2023-08-30T15:44:25;20.40;99.90
11505;DHT22;5809;53.262;10.408;2023-08-30T15:46:51;20.40;1.00
11505;DHT22;5809;53.262;10.408;2023-08-30T15:49:18;20.30;1.00
11505;DHT22;5809;53.262;10.408;2023-08-30T15:51:46;20.20;94.10
11505;DHT22;5809;53.262;10.408;2023-08-30T15:54:13;20.00;1.00
11505;DHT22;5809;53.262;10.408;2023-08-30T15:59:09;19.90;1.00
11505;DHT22;5809;53.262;10.408;2023-08-30T16:01:36;19.80;99.90
11505;DHT22;5809;53.262;10.408;2023-08-30T16:04:02;19.60;1.00
11505;DHT22;5809;53.262;10.408;2023-08-30T16:06:29;19.40;1.00
11505;DHT22;5809;53.262;10.408;2023-08-30T16:08:58;19.40;1.00
11505;DHT22;5809;53.262;10.408;2023-08-30T16:11:24;19.30;99.90
11505;DHT22;5809;53.262;10.408;2023-08-30T16:13:51;19.30;99.90
11505;DHT22;5809;53.262;10.408;2023-08-30T16:16:18;19.30;1.00
11505;DHT22;5809;53.262;10.408;2023-08-30T16:18:45;19.20;99.90
11505;DHT22;5809;53.262;10.408;2023-08-30T16:23:39;19.20;1.00
11505;DHT22;5809;53.262;10.408;2023-08-30T16:26:07;19.10;1.00
11505;DHT22;5809;53.262;10.408;2023-08-30T16:28:34;18.90;99.90
11505;DHT22;5809;53.262;10.408;2023-08-30T16:31:04;18.60;1.00
11505;DHT22;5809;53.262;10.408;2023-08-30T16:35:59;17.60;99.90
11505;DHT22;5809;53.262;10.408;2023-08-30T16:38:26;16.90;1.00
11505;DHT22;5809;53.262;10.408;2023-08-30T16:40:53;16.40;1.00
11505;DHT22;5809;53.262;10.408;2023-08-30T16:43:21;16.00;99.90
11505;DHT22;5809;53.262;10.408;2023-08-30T16:45:48;15.60;99.90
11505;DHT22;5809;53.262;10.408;2023-08-30T16:53:09;15.10;99.90
11505;DHT22;5809;53.262;10.408;2023-08-30T16:55:36;15.10;99.90
11505;DHT22;5809;53.262;10.408;2023-08-30T17:00:32;15.00;99.90
11505;DHT22;5809;53.262;10.408;2023-08-30T17:02:59;14.90;99.90
11505;DHT22;5809;53.262;10.408;2023-08-30T17:05:26;15.00;99.90
11505;DHT22;5809;53.262;10.408;2023-08-30T17:07:53;15.00;99.90
11505;DHT22;5809;53.262;10.408;2023-08-30T17:10:20;14.90;99.90
11505;DHT22;5809;53.262;10.408;2023-08-30T17:12:48;14.90;99.90
11505;DHT22;5809;53.262;10.408;2023-08-30T17:15:16;14.90;99.90
11505;DHT22;5809;53.262;10.408;2023-08-30T17:17:44;14.90;99.90
11505;DHT22;5809;53.262;10.408;2023-08-30T17:20:12;14.90;99.90
11505;DHT22;5809;53.262;10.408;2023-08-30T17:22:39;14.90;99.90
11505;DHT22;5809;53.262;10.408;2023-08-30T17:25:06;14.90;99.90
11505;DHT22;5809;53.262;10.408;2023-08-30T17:27:33;14.90;99.90
11505;DHT22;5809;53.262;10.408;2023-08-30T17:30:00;14.90;99.90
11505;DHT22;5809;53.262;10.408;2023-08-30T17:34:57;15.10;99.90
11505;DHT22;5809;53.262;10.408;2023-08-30T17:39:51;15.00;99.90
11505;DHT22;5809;53.262;10.408;2023-08-30T17:44:45;14.90;99.90
11505;DHT22;5809;53.262;10.408;2023-08-30T17:52:09;14.90;99.90
11505;DHT22;5809;53.262;10.408;2023-08-30T17:54:36;14.90;99.90
11505;DHT22;5809;53.262;10.408;2023-08-30T17:57:03;14.90;99.90
11505;DHT22;5809;53.262;10.408;2023-08-30T17:59:30;14.80;99.90
11505;DHT22;5809;53.262;10.408;2023-08-30T18:02:00;14.80;99.90
11505;DHT22;5809;53.262;10.408;2023-08-30T18:06:54;14.80;99.90
11505;DHT22;5809;53.262;10.408;2023-08-30T18:09:24;14.80;99.90
11505;DHT22;5809;53.262;10.408;2023-08-30T18:11:50;14.80;99.90
11505;DHT22;5809;53.262;10.408;2023-08-30T18:16:44;14.80;99.90
11505;DHT22;5809;53.262;10.408;2023-08-30T18:24:16;14.70;99.90
11505;DHT22;5809;53.262;10.408;2023-08-30T18:26:45;14.60;99.90
11505;DHT22;5809;53.262;10.408;2023-08-30T18:29:13;14.60;99.90
11505;DHT22;5809;53.262;10.408;2023-08-30T18:31:40;14.60;99.90
11505;DHT22;5809;53.262;10.408;2023-08-30T18:34:07;14.50;99.90
11505;DHT22;5809;53.262;10.408;2023-08-30T18:36:34;14.60;99.90
11505;DHT22;5809;53.262;10.408;2023-08-30T18:39:01;14.50;99.90
11505;DHT22;5809;53.262;10.408;2023-08-30T18:41:29;14.50;99.90
11505;DHT22;5809;53.262;10.408;2023-08-30T18:43:57;14.60;99.90
11505;DHT22;5809;53.262;10.408;2023-08-30T18:46:25;14.50;99.90
11505;DHT22;5809;53.262;10.408;2023-08-30T18:48:52;14.50;99.90
11505;DHT22;5809;53.262;10.408;2023-08-30T18:51:21;14.60;99.90
11505;DHT22;5809;53.262;10.408;2023-08-30T18:56:15;14.50;99.90
11505;DHT22;5809;53.262;10.408;2023-08-30T18:58:42;14.50;99.90
11505;DHT22;5809;53.262;10.408;2023-08-30T19:01:12;14.50;99.90
11505;DHT22;5809;53.262;10.408;2023-08-30T19:06:07;14.50;99.90
11505;DHT22;5809;53.262;10.408;2023-08-30T19:08:34;14.40;99.90
11505;DHT22;5809;53.262;10.408;2023-08-30T19:11:00;14.40;99.90
11505;DHT22;5809;53.262;10.408;2023-08-30T19:13:27;14.40;99.90
11505;DHT22;5809;53.262;10.408;2023-08-30T19:18:23;14.30;99.90
11505;DHT22;5809;53.262;10.408;2023-08-30T19:20:54;14.30;99.90
11505;DHT22;5809;53.262;10.408;2023-08-30T19:28:16;14.20;99.90
11505;DHT22;5809;53.262;10.408;2023-08-30T19:30:43;14.20;99.90
11505;DHT22;5809;53.262;10.408;2023-08-30T19:33:10;14.20;99.90
11505;DHT22;5809;53.262;10.408;2023-08-30T19:35:38;14.10;99.90
11505;DHT22;5809;53.262;10.408;2023-08-30T19:38:05;14.10;99.90
11505;DHT22;5809;53.262;10.408;2023-08-30T19:40:31;14.10;99.90
11505;DHT22;5809;53.262;10.408;2023-08-30T19:42:58;14.00;99.90
11505;DHT22;5809;53.262;10.408;2023-08-30T19:47:52;14.00;99.90
11505;DHT22;5809;53.262;10.408;2023-08-30T19:52:48;14.10;99.90
11505;DHT22;5809;53.262;10.408;2023-08-30T19:57:42;14.00;99.90
11505;DHT22;5809;53.262;10.408;2023-08-30T20:00:12;14.00;99.90
11505;DHT22;5809;53.262;10.408;2023-08-30T20:10:03;13.80;99.90
11505;DHT22;5809;53.262;10.408;2023-08-30T20:12:30;13.70;99.90
11505;DHT22;5809;53.262;10.408;2023-08-30T20:14:57;13.70;99.90
11505;DHT22;5809;53.262;10.408;2023-08-30T20:19:52;13.60;99.90
11505;DHT22;5809;53.262;10.408;2023-08-30T20:24:47;13.50;99.90
11505;DHT22;5809;53.262;10.408;2023-08-30T20:27:15;13.50;99.90
11505;DHT22;5809;53.262;10.408;2023-08-30T20:32:09;13.40;99.90
11505;DHT22;5809;53.262;10.408;2023-08-30T20:34:36;13.40;99.90
11505;DHT22;5809;53.262;10.408;2023-08-30T20:37:03;13.30;99.90